Time;durP1;ratioP1;P1;durP2;ratioP2;P2;SDS_P1;SDS_P2;PMS_P1;PMS_P2;Temp;Humidity;BMP_temperature;BMP_pressure;BME280_temperature;BME280_humidity;BME280_pressure;Samples;Min_cycle;Max_cycle;Signal;HPM_P1;HPM_P2
2021/08/21 00:01:32;;;;;;;6.87;6.17;;;;;;;17.96;81.49;155978.19;5083827;28;20450;-74
2021/08/21 00:04:17;;;;;;;9.30;6.83;;;;;;;17.95;80.68;155975.56;5063343;28;20469;-74
2021/08/21 00:06:53;;;;;;;10.80;6.53;;;;;;;18.01;80.39;155991.22;5080541;28;20453;-74
2021/08/21 00:09:28;;;;;;;7.73;7.00;;;;;;;17.96;81.21;155976.88;5061468;28;20454;-74
2021/08/21 00:12:04;;;;;;;8.23;7.43;;;;;;;17.99;80.39;155984.69;5073502;28;20478;-74
2021/08/21 00:14:52;;;;;;;10.00;6.83;;;;;;;17.94;80.94;155973.00;5078793;28;20465;-74
2021/08/21 00:17:45;;;;;;;8.70;6.70;;;;;;;17.96;80.65;155976.88;5079493;28;20507;-74
2021/08/21 00:20:20;;;;;;;7.90;7.20;;;;;;;17.89;81.34;155959.97;5063871;28;20489;-74
2021/08/21 00:23:05;;;;;;;7.40;6.60;;;;;;;17.81;82.32;155937.84;5082872;28;20875;-74
2021/08/21 00:25:52;;;;;;;8.00;7.20;;;;;;;17.77;83.69;155928.69;5082604;28;20472;-74
2021/08/21 00:28:28;;;;;;;6.37;5.80;;;;;;;17.77;82.35;155928.69;5059603;28;20811;-74
2021/08/21 00:31:15;;;;;;;7.67;6.73;;;;;;;17.73;82.46;155918.31;5079158;28;20472;-74
2021/08/21 00:34:00;;;;;;;6.67;6.03;;;;;;;17.77;82.16;155927.38;5082402;28;20460;-74
2021/08/21 00:36:46;;;;;;;7.20;6.50;;;;;;;17.71;83.13;155913.13;5075110;28;20830;-74
2021/08/21 00:39:31;;;;;;;6.57;6.03;;;;;;;17.70;83.00;155909.19;5071203;28;20808;-74
2021/08/21 00:42:08;;;;;;;7.30;6.60;;;;;;;17.67;83.24;155902.69;5065399;28;20446;-74
2021/08/21 00:44:44;;;;;;;10.10;6.70;;;;;;;17.71;82.89;155913.13;5080449;28;20483;-74
2021/08/21 00:47:31;;;;;;;8.33;7.53;;;;;;;17.68;83.89;155905.28;5077625;28;20859;-74
2021/08/21 00:50:16;;;;;;;6.90;6.30;;;;;;;17.57;84.02;155876.66;5078589;28;20542;-74
2021/08/21 00:53:01;;;;;;;7.73;7.03;;;;;;;17.56;84.56;155875.34;5076980;28;20819;-74
2021/08/21 00:55:49;;;;;;;8.10;7.40;;;;;;;17.52;84.72;155863.59;5033219;28;20810;-74
2021/08/21 00:58:38;;;;;;;7.60;6.90;;;;;;;17.54;84.56;155870.16;5057930;28;20415;-74
2021/08/21 01:01:14;;;;;;;7.87;7.07;;;;;;;17.55;85.17;155871.47;5044983;28;20454;-74
2021/08/21 01:04:00;;;;;;;7.77;6.97;;;;;;;17.48;84.56;155853.16;5071391;28;20469;-74
2021/08/21 01:06:46;;;;;;;7.73;7.00;;;;;;;17.40;85.44;155833.63;5077961;28;20951;-74
2021/08/21 01:09:22;;;;;;;7.53;6.83;;;;;;;17.39;84.85;155829.75;5063642;28;20611;-74
2021/08/21 01:12:07;;;;;;;7.17;6.47;;;;;;;17.35;85.24;155819.31;5077629;28;20462;-74
2021/08/21 01:14:54;;;;;;;7.67;6.97;;;;;;;17.27;85.52;155798.47;5072098;28;20603;-74
2021/08/21 01:17:39;;;;;;;7.47;6.77;;;;;;;17.26;85.87;155795.91;5074314;28;20398;-74
2021/08/21 01:20:19;;;;;;;7.60;6.90;;;;;;;17.23;86.22;155788.09;5074993;28;20892;-74
2021/08/21 01:23:06;;;;;;;7.17;6.47;;;;;;;17.20;86.17;155781.59;5062179;28;20862;-74
2021/08/21 01:25:46;;;;;;;8.23;7.10;;;;;;;17.19;85.71;155777.66;5044136;28;20845;-74
2021/08/21 01:28:35;;;;;;;7.17;6.47;;;;;;;17.23;85.18;155789.41;5070661;28;20816;-74
2021/08/21 01:31:43;;;;;;;6.27;5.67;;;;;;;17.23;85.07;155788.09;5075692;28;20479;-74
2021/08/21 01:34:19;;;;;;;7.97;7.17;;;;;;;17.25;84.31;155793.28;5078594;28;20445;-74
2021/08/21 01:37:05;;;;;;;10.50;6.30;;;;;;;17.27;84.70;155798.47;5061939;28;21025;-74
2021/08/21 01:40:05;;;;;;;8.47;7.17;;;;;;;17.25;84.60;155794.59;5074888;28;20509;-74
2021/08/21 01:42:47;;;;;;;6.13;5.63;;;;;;;17.23;84.38;155788.09;5059937;28;20438;-74
2021/08/21 01:45:25;;;;;;;6.40;5.57;;;;;;;17.28;83.64;155802.41;5053168;28;20469;-74
2021/08/21 01:48:00;;;;;;;6.23;5.57;;;;;;;17.23;83.30;155789.41;5062848;28;20446;-74
2021/08/21 01:51:06;;;;;;;6.70;6.10;;;;;;;17.21;83.53;155784.16;5026616;28;20464;-74
2021/08/21 01:53:55;;;;;;;8.00;6.63;;;;;;;17.19;85.30;155777.66;4996768;28;20557;-74
2021/08/21 01:56:44;;;;;;;6.77;6.17;;;;;;;17.15;85.33;155768.59;4994857;28;20471;-74
2021/08/21 02:00:16;;;;;;;7.63;6.77;;;;;;;17.11;86.38;155756.84;4931701;28;20469;-74
2021/08/21 02:03:17;;;;;;;6.67;6.07;;;;;;;17.10;87.65;155754.25;5055915;28;20474;-74
2021/08/21 02:06:03;;;;;;;7.53;6.83;;;;;;;17.04;88.10;155741.25;5078344;28;20542;-74
2021/08/21 02:08:49;;;;;;;7.13;6.53;;;;;;;16.96;88.30;155720.44;5072277;28;20443;-74
2021/08/21 02:11:35;;;;;;;7.53;6.77;;;;;;;16.91;89.53;155707.44;5060541;28;20594;-74
2021/08/21 02:14:23;;;;;;;7.67;6.97;;;;;;;16.87;90.40;155697.00;5057675;28;20869;-74
2021/08/21 02:17:16;;;;;;;8.80;6.93;;;;;;;16.83;91.47;155686.59;5072100;28;20552;-74
2021/08/21 02:20:31;;;;;;;9.83;7.00;;;;;;;16.78;90.10;155673.59;4992767;28;20984;-74
2021/08/21 02:23:18;;;;;;;7.10;6.40;;;;;;;16.74;89.58;155661.88;5013975;28;20488;-74
2021/08/21 02:25:57;;;;;;;7.60;6.80;;;;;;;16.71;89.31;155655.34;5065448;28;20461;-74
2021/08/21 02:28:48;;;;;;;7.50;6.50;;;;;;;16.68;89.65;155647.53;5080688;28;20970;-74
2021/08/21 02:31:33;;;;;;;8.10;7.30;;;;;;;16.61;89.04;155629.34;5061194;28;20560;-74
2021/08/21 02:34:08;;;;;;;7.70;7.00;;;;;;;16.60;89.92;155626.72;5059505;28;20445;-74
2021/08/21 02:37:17;;;;;;;7.73;7.03;;;;;;;16.52;89.64;155605.88;5038222;28;20494;-74
2021/08/21 02:39:53;;;;;;;8.70;7.77;;;;;;;16.51;90.10;155603.28;5019616;28;20456;-75
2021/08/21 02:42:28;;;;;;;7.33;6.60;;;;;;;16.44;90.48;155585.09;5010024;28;20503;-74
2021/08/21 02:45:05;;;;;;;7.60;6.90;;;;;;;16.40;89.83;155574.66;5009080;28;20562;-74
2021/08/21 02:47:52;;;;;;;9.27;8.30;;;;;;;16.36;89.88;155565.56;5035407;28;20837;-74
2021/08/21 02:50:27;;;;;;;7.43;6.77;;;;;;;16.31;90.23;155552.56;5058946;28;20493;-74
2021/08/21 02:53:04;;;;;;;7.90;7.10;;;;;;;16.26;90.38;155538.25;5077596;28;20456;-74
2021/08/21 02:55:51;;;;;;;8.60;7.80;;;;;;;16.23;90.07;155531.75;5063686;28;20813;-74
2021/08/21 02:58:37;;;;;;;7.43;6.80;;;;;;;16.20;90.39;155522.66;5058565;28;21064;-74
2021/08/21 03:01:12;;;;;;;7.83;6.87;;;;;;;16.17;90.52;155514.88;5054745;28;21043;-74
2021/08/21 03:03:48;;;;;;;8.47;7.67;;;;;;;16.13;91.57;155505.75;5042045;28;20465;-74
2021/08/21 03:06:37;;;;;;;7.97;7.17;;;;;;;16.11;91.90;155500.56;5056558;28;20481;-74
2021/08/21 03:09:26;;;;;;;7.77;7.07;;;;;;;16.10;91.83;155497.94;5069460;28;20470;-74
2021/08/21 03:12:11;;;;;;;8.03;7.40;;;;;;;16.09;93.16;155494.06;5060307;28;20547;-74
2021/08/21 03:15:10;;;;;;;8.70;7.10;;;;;;;16.08;92.33;155491.44;5058102;28;20775;-74
2021/08/21 03:17:56;;;;;;;7.83;7.07;;;;;;;16.09;91.77;155494.06;5077298;28;20592;-74
2021/08/21 03:20:32;;;;;;;8.07;7.27;;;;;;;16.09;91.78;155494.06;5080410;28;20445;-74
2021/08/21 03:23:18;;;;;;;7.70;6.90;;;;;;;16.06;92.00;155486.25;5062006;28;20485;-74
2021/08/21 03:25:55;;;;;;;7.63;6.93;;;;;;;16.04;92.89;155481.06;5058677;28;20464;-74
2021/08/21 03:28:31;;;;;;;8.10;7.40;;;;;;;16.02;93.98;155475.88;5056336;28;20457;-74
2021/08/21 03:31:18;;;;;;;7.20;6.50;;;;;;;16.01;92.51;155473.25;5063528;28;20473;-74
2021/08/21 03:33:54;;;;;;;8.13;6.73;;;;;;;15.97;93.18;155462.81;5045734;28;20448;-74
2021/08/21 03:36:40;;;;;;;7.40;6.70;;;;;;;15.92;92.83;155451.13;5083316;28;20583;-74
2021/08/21 03:39:26;;;;;;;7.63;6.93;;;;;;;15.90;93.07;155444.63;5055558;28;20441;-74
2021/08/21 03:42:15;;;;;;;7.53;6.83;;;;;;;15.90;92.83;155444.63;5060305;28;20952;-74
2021/08/21 03:44:52;;;;;;;8.83;7.10;;;;;;;15.93;92.61;155452.44;5043196;28;20517;-74
2021/08/21 03:47:38;;;;;;;7.20;6.50;;;;;;;15.89;92.51;155442.00;5066184;28;20444;-74
2021/08/21 03:50:14;;;;;;;8.03;7.23;;;;;;;15.86;91.96;155434.25;5050705;28;20550;-74
2021/08/21 03:52:49;;;;;;;7.77;7.00;;;;;;;15.83;92.81;155429.03;5056741;28;20858;-74
2021/08/21 03:55:51;;;;;;;7.50;6.50;;;;;;;15.79;92.37;155418.63;5019447;28;20566;-74
2021/08/21 03:58:38;;;;;;;7.20;6.50;;;;;;;15.74;92.45;155405.66;5064434;28;20488;-74
2021/08/21 04:01:14;;;;;;;7.00;6.30;;;;;;;15.74;92.53;155405.66;5041812;28;20453;-74
2021/08/21 04:04:20;;;;;;;7.30;6.60;;;;;;;15.72;92.49;155400.47;5010356;28;20603;-74
2021/08/21 04:07:08;;;;;;;7.60;6.90;;;;;;;15.69;92.84;155392.66;4915319;29;20533;-74
2021/08/21 04:09:54;;;;;;;7.10;6.40;;;;;;;15.68;92.74;155388.72;4909371;29;20611;-74
2021/08/21 04:12:30;;;;;;;7.27;6.50;;;;;;;15.71;93.03;155397.84;4935108;29;20471;-74
2021/08/21 04:15:28;;;;;;;6.63;5.93;;;;;;;15.73;93.09;155401.72;4932135;29;20511;-74
2021/08/21 04:18:05;;;;;;;7.67;6.90;;;;;;;15.68;92.63;155390.03;4932472;29;20472;-74
2021/08/21 04:20:51;;;;;;;7.27;6.57;;;;;;;15.62;92.95;155374.41;4936551;29;20447;-74
2021/08/21 04:23:36;;;;;;;7.17;6.47;;;;;;;15.60;93.69;155369.22;4931609;29;20647;-74
2021/08/21 04:26:26;;;;;;;7.50;6.60;;;;;;;15.59;93.58;155366.66;4920098;29;20482;-74
2021/08/21 04:29:13;;;;;;;6.83;6.20;;;;;;;15.59;93.28;155366.66;4941648;28;20495;-74
2021/08/21 04:32:00;;;;;;;6.30;5.70;;;;;;;15.59;93.38;155366.66;5037227;28;20468;-74
2021/08/21 04:34:46;;;;;;;6.77;5.97;;;;;;;15.60;93.36;155369.22;5054696;28;20943;-74
2021/08/21 04:37:24;;;;;;;7.40;5.53;;;;;;;15.60;93.64;155369.22;5045211;28;20461;-74
2021/08/21 04:39:59;;;;;;;7.97;5.97;;;;;;;15.62;93.78;155373.16;5063242;28;20455;-74
2021/08/21 04:42:35;;;;;;;7.10;6.23;;;;;;;15.61;93.95;155371.84;5032782;28;20457;-74
2021/08/21 04:45:21;;;;;;;8.80;6.70;;;;;;;15.63;94.46;155377.03;5042444;28;20829;-74
2021/08/21 04:47:58;;;;;;;6.60;5.93;;;;;;;15.63;94.65;155377.03;5028741;28;20868;-74
2021/08/21 04:50:45;;;;;;;7.03;6.20;;;;;;;15.66;94.51;155384.84;5041388;28;20469;-74
2021/08/21 04:53:30;;;;;;;7.47;6.40;;;;;;;15.69;94.26;155392.66;5030090;28;20446;-74
2021/08/21 04:56:16;;;;;;;7.40;6.70;;;;;;;15.75;94.01;155408.22;5046446;28;20459;-74
2021/08/21 04:59:41;;;;;;;10.53;6.10;;;;;;;15.81;94.67;155423.81;4988091;28;20473;-74
2021/08/21 05:02:26;;;;;;;7.50;6.80;;;;;;;15.89;94.04;155442.00;5033557;28;20442;-74
2021/08/21 05:05:13;;;;;;;6.53;5.90;;;;;;;15.94;93.84;155455.06;5045390;28;20538;-74
2021/08/21 05:07:49;;;;;;;7.13;6.23;;;;;;;16.01;93.75;155473.25;5024465;28;20451;-74
2021/08/21 05:10:45;;;;;;;8.10;7.27;;;;;;;16.08;93.65;155491.44;4997775;28;20472;-74
2021/08/21 05:13:32;;;;;;;7.53;6.73;;;;;;;16.15;93.67;155509.66;5000360;28;20468;-74
2021/08/21 05:16:21;;;;;;;7.07;6.37;;;;;;;16.24;93.22;155533.06;4996455;28;20487;-74
2021/08/21 05:19:25;;;;;;;7.37;6.67;;;;;;;16.33;93.84;155556.47;4977327;28;20508;-74
2021/08/21 05:22:26;;;;;;;7.30;6.60;;;;;;;16.43;93.66;155582.47;5038481;28;20934;-74
2021/08/21 05:25:14;;;;;;;6.87;6.17;;;;;;;16.55;94.11;155613.72;5033100;28;20475;-74
2021/08/21 05:27:59;;;;;;;7.13;6.43;;;;;;;16.69;93.03;155648.84;5061268;28;20627;-74
2021/08/21 05:30:45;;;;;;;8.13;6.20;;;;;;;16.88;92.22;155698.31;5061771;28;20529;-74
2021/08/21 05:33:38;;;;;;;8.20;7.40;;;;;;;17.05;91.02;155743.81;5055216;28;20541;-74
2021/08/21 05:36:13;;;;;;;6.40;5.80;;;;;;;17.19;90.58;155778.97;5039272;28;20555;-74
2021/08/21 05:38:59;;;;;;;7.30;6.20;;;;;;;17.31;90.37;155810.22;5049785;28;20474;-74
2021/08/21 05:42:01;;;;;;;7.23;6.53;;;;;;;17.43;89.34;155840.13;4987338;28;20457;-74
2021/08/21 05:44:46;;;;;;;6.97;6.27;;;;;;;17.53;88.69;155866.22;4989538;28;20628;-74
2021/08/21 05:47:31;;;;;;;7.40;6.63;;;;;;;17.61;87.60;155888.34;4989364;28;20504;-74
2021/08/21 05:50:18;;;;;;;7.13;6.43;;;;;;;17.70;87.34;155910.50;5026210;28;20481;-74
2021/08/21 05:53:03;;;;;;;6.83;6.13;;;;;;;17.86;87.54;155950.84;5056594;28;20460;-74
2021/08/21 05:55:52;;;;;;;7.93;7.13;;;;;;;17.92;86.77;155967.78;5013813;28;20527;-74
2021/08/21 05:58:37;;;;;;;10.03;6.40;;;;;;;18.00;86.28;155987.31;5032083;28;20430;-74
2021/08/21 06:01:22;;;;;;;8.20;6.77;;;;;;;18.06;86.48;156004.22;5012107;28;20542;-74
2021/08/21 06:04:07;;;;;;;7.10;6.50;;;;;;;18.07;85.24;156005.53;5029260;28;20475;-74
2021/08/21 06:06:55;;;;;;;8.57;6.57;;;;;;;18.16;85.92;156030.25;5015456;28;20518;-74
2021/08/21 06:09:40;;;;;;;9.53;7.00;;;;;;;18.28;86.71;156060.22;5009399;28;20513;-74
2021/08/21 06:12:17;;;;;;;7.43;6.73;;;;;;;18.40;86.54;156090.22;5010595;28;20936;-74
2021/08/21 06:15:02;;;;;;;8.00;7.30;;;;;;;18.39;85.87;156087.59;5029012;28;20538;-74
2021/08/21 06:17:48;;;;;;;7.97;7.17;;;;;;;18.45;85.55;156103.22;5026092;28;20467;-74
2021/08/21 06:20:47;;;;;;;9.43;7.80;;;;;;;18.58;85.65;156138.44;4968061;28;20462;-74
2021/08/21 06:23:32;;;;;;;7.07;6.37;;;;;;;18.64;84.98;156152.75;4984772;28;20490;-74
2021/08/21 06:26:28;;;;;;;8.33;7.53;;;;;;;18.74;84.08;156178.84;4982843;28;20473;-74
2021/08/21 06:29:35;;;;;;;8.63;7.90;;;;;;;18.78;83.81;156190.53;4937564;29;20951;-74
2021/08/21 06:32:34;;;;;;;9.07;7.43;;;;;;;18.78;83.27;156189.22;4966386;28;20478;-74
2021/08/21 06:35:21;;;;;;;7.93;7.23;;;;;;;18.90;83.07;156220.53;4966853;28;20470;-74
2021/08/21 06:37:56;;;;;;;8.10;7.40;;;;;;;18.96;82.59;156234.81;4961241;28;20477;-74
2021/08/21 06:40:31;;;;;;;8.23;7.50;;;;;;;19.18;82.02;156292.19;4964558;28;20564;-74
2021/08/21 06:43:07;;;;;;;9.40;8.07;;;;;;;19.28;79.16;156319.53;5001312;28;20438;-73
2021/08/21 06:46:03;;;;;;;10.50;7.77;;;;;;;19.49;79.57;156373.03;4989107;28;20892;-74
2021/08/21 06:49:02;;;;;;;7.57;6.77;;;;;;;19.72;78.04;156431.72;4953586;28;20491;-75
2021/08/21 06:51:38;;;;;;;7.70;7.00;;;;;;;19.81;77.70;156456.47;4995846;28;20576;-75
2021/08/21 06:54:14;;;;;;;7.90;7.20;;;;;;;19.90;77.46;156478.66;5063299;28;20651;-74
2021/08/21 06:57:00;;;;;;;7.50;6.63;;;;;;;20.02;75.41;156509.91;5057427;28;20816;-74
2021/08/21 06:59:35;;;;;;;7.83;7.03;;;;;;;20.22;74.46;156562.13;5046160;28;20560;-74
2021/08/21 07:02:23;;;;;;;7.50;6.80;;;;;;;20.41;76.53;156611.69;5045247;28;20810;-74
2021/08/21 07:05:09;;;;;;;8.33;7.53;;;;;;;20.71;75.94;156688.66;5055782;28;20987;-74
2021/08/21 07:07:54;;;;;;;8.80;7.10;;;;;;;20.98;74.02;156757.81;5059446;28;20458;-74
2021/08/21 07:11:00;;;;;;;7.23;6.53;;;;;;;21.52;72.61;156897.53;5007957;28;20963;-74
2021/08/21 07:13:46;;;;;;;6.57;5.97;;;;;;;21.92;69.98;157000.72;5006528;28;20582;-74
2021/08/21 07:16:33;;;;;;;6.77;6.17;;;;;;;21.95;68.86;157009.84;4952505;28;20477;-75
2021/08/21 07:19:10;;;;;;;6.97;6.37;;;;;;;22.28;68.55;157094.75;5005788;28;20875;-75
2021/08/21 07:21:55;;;;;;;6.90;6.30;;;;;;;22.33;67.09;157107.78;5009058;28;20464;-74
2021/08/21 07:24:40;;;;;;;7.60;6.80;;;;;;;22.40;65.45;157127.38;5020223;28;20537;-75
2021/08/21 07:27:16;;;;;;;7.43;6.73;;;;;;;22.48;65.49;157146.97;5027382;28;20463;-75
2021/08/21 07:30:01;;;;;;;9.13;6.60;;;;;;;22.66;66.10;157194.09;5027567;28;20482;-75
2021/08/21 07:33:03;;;;;;;7.33;6.53;;;;;;;23.06;65.89;157296.00;4952605;28;20447;-75
2021/08/21 07:36:06;;;;;;;7.17;6.47;;;;;;;23.37;64.40;157378.38;4968524;28;20466;-75
2021/08/21 07:38:52;;;;;;;6.60;6.00;;;;;;;23.58;63.60;157431.97;5003700;28;20471;-75
2021/08/21 07:41:28;;;;;;;6.30;5.70;;;;;;;23.81;61.02;157492.06;5036630;28;20454;-75
2021/08/21 07:44:15;;;;;;;6.33;5.80;;;;;;;24.05;59.57;157554.84;5041253;28;20462;-75
2021/08/21 07:47:20;;;;;;;5.70;5.10;;;;;;;24.18;58.58;157588.91;5029751;28;20443;-75
2021/08/21 07:50:06;;;;;;;6.60;6.00;;;;;;;24.33;57.93;157625.53;5038154;28;21058;-75
2021/08/21 07:52:52;;;;;;;7.03;6.43;;;;;;;24.49;57.92;157667.38;5054143;28;20453;-75
2021/08/21 07:55:38;;;;;;;6.57;6.00;;;;;;;24.59;57.51;157693.53;5055885;28;20925;-75
2021/08/21 07:58:13;;;;;;;6.90;6.30;;;;;;;24.72;58.23;157728.88;5059408;28;20454;-75
2021/08/21 08:00:49;;;;;;;6.60;6.10;;;;;;;24.89;57.97;157772.03;5056289;28;20545;-75
2021/08/21 08:03:54;;;;;;;6.90;6.20;;;;;;;24.67;56.96;157714.47;5030506;28;20969;-75
2021/08/21 08:06:40;;;;;;;6.10;5.60;;;;;;;24.93;56.69;157781.22;5030970;28;20518;-75
2021/08/21 08:09:40;;;;;;;6.50;5.90;;;;;;;25.39;54.90;157902.91;5019619;28;20467;-75
2021/08/21 08:12:25;;;;;;;6.00;5.50;;;;;;;25.37;54.62;157897.69;5023601;28;20470;-75
2021/08/21 08:15:01;;;;;;;6.83;6.13;;;;;;;25.53;54.26;157936.97;5029858;28;20455;-75
2021/08/21 08:17:37;;;;;;;7.30;6.70;;;;;;;25.48;53.64;157923.91;5057621;28;20933;-75
2021/08/21 08:20:12;;;;;;;7.47;6.77;;;;;;;25.77;54.54;157999.81;5062940;28;20458;-75
2021/08/21 08:23:12;;;;;;;7.20;6.50;;;;;;;25.75;52.89;157994.59;5029560;28;20471;-76
2021/08/21 08:25:59;;;;;;;6.53;6.03;;;;;;;25.87;53.62;158026.00;5018450;28;20534;-73
2021/08/21 08:28:44;;;;;;;7.07;6.43;;;;;;;25.93;55.25;158041.72;5031114;28;20482;-73
2021/08/21 08:31:29;;;;;;;6.57;6.07;;;;;;;26.15;54.24;158099.41;5029492;28;20478;-73
2021/08/21 08:34:05;;;;;;;8.23;6.80;;;;;;;26.19;54.08;158108.53;5056840;28;20450;-75
2021/08/21 08:36:50;;;;;;;7.20;6.53;;;;;;;26.31;53.47;158139.97;5057884;28;20454;-75
2021/08/21 08:39:35;;;;;;;7.90;6.97;;;;;;;26.41;52.99;158166.16;5060255;28;20581;-75
2021/08/21 08:42:14;;;;;;;8.50;7.80;;;;;;;26.46;52.81;158180.56;5057197;28;20442;-75
2021/08/21 08:45:16;;;;;;;12.10;11.10;;;;;;;26.67;53.10;158232.94;5031102;28;20471;-75
2021/08/21 08:48:03;;;;;;;9.63;8.60;;;;;;;26.82;53.98;158273.59;5055846;28;20459;-75
2021/08/21 08:50:48;;;;;;;8.33;7.53;;;;;;;26.98;52.18;158315.53;5057978;28;20593;-75
2021/08/21 08:53:35;;;;;;;8.00;7.30;;;;;;;26.82;51.97;158272.31;5061822;28;20466;-76
2021/08/21 08:56:20;;;;;;;8.00;7.30;;;;;;;26.67;52.94;158232.94;5058786;28;20877;-75
2021/08/21 08:58:57;;;;;;;7.57;6.77;;;;;;;26.69;54.69;158238.22;5060011;28;20451;-76
2021/08/21 09:01:53;;;;;;;8.20;7.40;;;;;;;26.87;53.65;158285.44;5017717;28;20544;-76
2021/08/21 09:04:41;;;;;;;7.50;6.70;;;;;;;27.06;52.89;158335.16;5011429;28;20622;-75
2021/08/21 09:07:18;;;;;;;8.50;7.63;;;;;;;27.12;52.92;158352.22;5062793;28;20445;-75
2021/08/21 09:10:17;;;;;;;9.67;8.20;;;;;;;26.86;53.16;158282.78;5060851;28;20473;-75
2021/08/21 09:13:04;;;;;;;8.43;7.57;;;;;;;26.84;54.57;158277.56;5058831;28;20462;-75
2021/08/21 09:15:52;;;;;;;7.03;6.43;;;;;;;26.87;54.41;158285.44;5056517;28;20469;-75
2021/08/21 09:18:38;;;;;;;7.83;7.13;;;;;;;26.97;53.78;158311.63;5056899;28;20483;-75
2021/08/21 09:21:23;;;;;;;7.50;6.90;;;;;;;27.00;53.61;158320.81;5056789;28;20488;-75
2021/08/21 09:23:59;;;;;;;7.67;7.00;;;;;;;27.08;52.93;158340.44;5055319;28;20486;-75
2021/08/21 09:26:36;;;;;;;6.90;6.20;;;;;;;26.82;53.62;158273.59;5067235;28;20813;-75
2021/08/21 09:29:11;;;;;;;7.43;6.73;;;;;;;27.04;53.31;158329.94;5052301;28;20442;-75
2021/08/21 09:31:48;;;;;;;7.23;6.63;;;;;;;27.03;52.27;158328.63;5060133;28;20447;-75
2021/08/21 09:34:24;;;;;;;7.93;7.23;;;;;;;26.97;53.58;158312.94;5060864;28;20494;-75
2021/08/21 09:37:10;;;;;;;7.37;6.77;;;;;;;26.69;53.72;158239.50;5057452;28;20462;-75
2021/08/21 09:40:03;;;;;;;8.20;7.40;;;;;;;26.68;53.64;158235.59;5056468;28;21035;-75
2021/08/21 09:43:00;;;;;;;6.97;6.27;;;;;;;26.39;55.29;158162.25;5035364;28;20462;-75
2021/08/21 09:45:47;;;;;;;8.33;6.20;;;;;;;26.43;57.57;158172.72;5047367;28;20912;-75
2021/08/21 09:48:24;;;;;;;7.87;7.07;;;;;;;26.24;56.03;158122.94;5055704;28;20446;-75
2021/08/21 09:51:09;;;;;;;6.43;5.40;;;;;;;26.40;55.52;158164.84;5057307;28;20470;-75
2021/08/21 09:54:02;;;;;;;8.13;6.20;;;;;;;26.72;53.62;158246.03;5054548;28;20934;-75
2021/08/21 09:56:53;;;;;;;7.00;6.40;;;;;;;26.49;54.83;158188.44;5057009;28;20849;-75
2021/08/21 09:59:40;;;;;;;7.60;6.90;;;;;;;26.27;55.11;158130.81;5053843;28;20447;-75
2021/08/21 10:02:26;;;;;;;6.70;6.00;;;;;;;26.11;57.38;158088.84;5060550;28;20521;-75
2021/08/21 10:05:03;;;;;;;7.13;5.97;;;;;;;25.94;57.50;158045.66;5050444;28;20798;-75
2021/08/21 10:07:43;;;;;;;7.37;6.67;;;;;;;25.84;56.75;158018.19;5065257;28;20495;-75
2021/08/21 10:10:34;;;;;;;7.60;6.80;;;;;;;26.26;55.64;158126.88;5052169;28;20472;-75
2021/08/21 10:13:10;;;;;;;6.10;5.60;;;;;;;26.21;55.69;158115.06;5075268;28;20939;-75
2021/08/21 10:15:58;;;;;;;6.73;6.20;;;;;;;26.18;59.03;158107.25;5048029;28;20554;-75
2021/08/21 10:18:33;;;;;;;7.93;7.13;;;;;;;26.24;55.75;158121.66;5054430;28;20489;-75
2021/08/21 10:21:11;;;;;;;9.53;6.93;;;;;;;26.25;56.59;158125.56;5043742;28;20482;-75
2021/08/21 10:24:05;;;;;;;12.00;7.70;;;;;;;26.23;55.06;158119.03;5060822;28;20469;-75
2021/08/21 10:26:42;;;;;;;7.60;6.90;;;;;;;26.23;57.67;158120.34;5057312;28;20497;-75
2021/08/21 10:29:27;;;;;;;6.70;6.10;;;;;;;26.37;55.99;158155.72;5077915;28;20457;-75
2021/08/21 10:32:04;;;;;;;7.93;7.23;;;;;;;26.27;56.19;158130.81;5078202;28;20442;-75
2021/08/21 10:34:52;;;;;;;8.63;7.83;;;;;;;26.39;55.36;158162.25;5071988;28;20448;-75
2021/08/21 10:37:39;;;;;;;8.43;7.63;;;;;;;26.45;55.69;158177.94;5058277;28;20438;-75
2021/08/21 10:40:37;;;;;;;8.43;7.53;;;;;;;26.20;57.07;158111.16;5076644;28;20456;-75
2021/08/21 10:43:12;;;;;;;7.63;6.87;;;;;;;26.27;56.54;158129.47;5059065;28;20466;-75
2021/08/21 10:45:51;;;;;;;8.17;7.47;;;;;;;26.02;57.29;158066.63;5074055;28;20465;-75
2021/08/21 10:48:55;;;;;;;8.10;7.40;;;;;;;26.11;58.24;158088.84;5075723;28;20461;-75
2021/08/21 10:51:33;;;;;;;8.80;8.00;;;;;;;26.30;55.69;158137.34;5058307;28;21018;-75
2021/08/21 10:54:47;;;;;;;6.60;6.00;;;;;;;26.37;56.42;158156.97;5023673;28;20464;-75
2021/08/21 10:57:34;;;;;;;8.90;8.00;;;;;;;26.42;56.96;158170.06;5012329;28;20927;-75
2021/08/21 11:00:30;;;;;;;10.10;7.83;;;;;;;26.39;56.54;158162.25;5023417;28;20499;-75
2021/08/21 11:03:17;;;;;;;7.67;6.97;;;;;;;26.42;58.09;158170.06;5056637;28;20595;-75
2021/08/21 11:06:04;;;;;;;8.60;7.80;;;;;;;26.45;56.73;158177.94;5079496;28;21046;-75
2021/08/21 11:09:08;;;;;;;7.77;7.07;;;;;;;26.51;56.02;158193.66;5059816;28;20947;-75
2021/08/21 11:11:55;;;;;;;8.00;7.30;;;;;;;26.52;55.39;158196.31;5071972;28;20924;-75
2021/08/21 11:14:42;;;;;;;8.07;7.27;;;;;;;26.55;56.36;158202.84;5076188;28;20940;-75
2021/08/21 11:17:32;;;;;;;8.67;7.77;;;;;;;26.55;54.33;158204.19;5079710;28;20995;-75
2021/08/21 11:20:28;;;;;;;7.67;6.97;;;;;;;26.41;55.45;158167.47;5073804;28;20944;-75
2021/08/21 11:23:20;;;;;;;7.50;6.90;;;;;;;26.36;55.72;158154.41;5078924;28;20479;-75
2021/08/21 11:26:22;;;;;;;8.57;7.60;;;;;;;26.38;56.51;158158.31;5026782;28;20483;-75
2021/08/21 11:29:10;;;;;;;8.30;7.50;;;;;;;26.37;55.79;158155.72;5010918;28;20556;-75
2021/08/21 11:31:58;;;;;;;7.30;6.70;;;;;;;26.56;56.20;158205.44;5015897;28;20486;-75
2021/08/21 11:34:54;;;;;;;7.67;6.97;;;;;;;26.70;55.40;158240.81;4967977;28;20517;-75
2021/08/21 11:37:46;;;;;;;8.23;7.53;;;;;;;26.58;54.76;158210.72;4950402;28;20807;-75
2021/08/21 11:40:34;;;;;;;7.23;6.60;;;;;;;26.44;55.84;158174.03;4972299;28;20493;-75
2021/08/21 11:43:10;;;;;;;8.83;8.03;;;;;;;26.61;54.60;158219.84;4971229;28;20813;-75
2021/08/21 11:45:47;;;;;;;7.80;7.13;;;;;;;26.51;55.11;158193.66;4972911;28;20996;-75
2021/08/21 11:48:36;;;;;;;8.00;7.37;;;;;;;26.61;55.64;158219.84;4953834;28;20462;-75
2021/08/21 11:51:12;;;;;;;7.40;6.77;;;;;;;26.65;55.36;158229.03;4959642;28;20976;-75
2021/08/21 11:54:05;;;;;;;7.80;7.00;;;;;;;26.59;54.73;158214.63;4970855;28;20462;-75
2021/08/21 11:56:57;;;;;;;8.10;7.40;;;;;;;26.71;54.34;158244.78;4971757;28;20473;-75
2021/08/21 11:59:33;;;;;;;7.87;7.17;;;;;;;26.68;54.96;158236.91;5010739;28;20465;-75
2021/08/21 12:02:13;;;;;;;8.07;7.27;;;;;;;26.63;54.08;158222.50;5013293;28;20966;-75
2021/08/21 12:04:59;;;;;;;7.47;6.77;;;;;;;26.95;53.22;158306.38;5079279;28;20559;-75
2021/08/21 12:07:54;;;;;;;6.53;5.93;;;;;;;26.97;54.54;158312.94;5061681;28;20473;-75
2021/08/21 12:10:31;;;;;;;7.57;6.80;;;;;;;26.94;54.09;158305.06;5083420;28;20454;-75
2021/08/21 12:13:37;;;;;;;7.20;6.60;;;;;;;26.86;53.19;158284.09;5011011;28;20461;-75
2021/08/21 12:16:22;;;;;;;8.10;7.40;;;;;;;26.71;53.87;158244.78;5010149;28;20619;-75
2021/08/21 12:19:00;;;;;;;7.53;6.67;;;;;;;26.70;55.38;158242.13;4987059;28;20547;-75
2021/08/21 12:21:45;;;;;;;6.93;6.33;;;;;;;26.76;55.76;158257.88;5008847;28;21025;-75
2021/08/21 12:24:20;;;;;;;8.20;7.50;;;;;;;26.76;55.84;158256.53;4990176;28;20492;-75
2021/08/21 12:26:56;;;;;;;7.50;6.90;;;;;;;26.87;55.75;158285.44;5006065;28;20500;-75
2021/08/21 12:29:33;;;;;;;7.87;7.07;;;;;;;26.85;53.85;158281.47;4996214;28;20539;-75
2021/08/21 12:32:26;;;;;;;7.20;6.50;;;;;;;26.85;55.90;158281.47;5009890;28;20608;-75
2021/08/21 12:35:17;;;;;;;6.63;6.13;;;;;;;27.09;52.85;158343.03;5002327;28;20536;-75
2021/08/21 12:38:05;;;;;;;6.90;5.90;;;;;;;27.14;50.82;158356.13;5007239;28;20571;-75
2021/08/21 12:41:06;;;;;;;5.83;5.33;;;;;;;27.11;50.06;158349.59;4938265;28;20464;-75
2021/08/21 12:43:43;;;;;;;5.23;4.83;;;;;;;27.24;49.75;158381.06;5019742;28;20474;-75
2021/08/21 12:46:20;;;;;;;6.10;5.50;;;;;;;27.27;49.42;158390.19;5056574;28;20505;-73
2021/08/21 12:49:10;;;;;;;6.27;5.73;;;;;;;27.13;50.66;158353.53;5081837;28;20974;-75
2021/08/21 12:51:58;;;;;;;7.10;6.40;;;;;;;27.25;53.77;158383.66;5077344;28;20468;-73